This is the latest recevied weather packets stored in our database for station/object WC4PEM-7. If no packets are shown the sender has not sent any weather packets the latest 10 day(s).
| Time | Temp. | Humidity | Pressure | Rain* | Wind** | Luminosity | Snow |
|---|---|---|---|---|---|---|---|
| 1777652515 | 31.67° C | 54% | 1012.4 hPa | 0 mm | - | - | - |
| 1777652422 | 31.67° C | 54% | 1012.4 hPa | 0 mm | - | - | - |
| 1777652331 | 31.67° C | 54% | 1012.4 hPa | 0 mm | - | - | - |
| 1777652031 | 31.67° C | 55% | 1012.4 hPa | 0 mm | - | - | - |
| 1777651991 | 31.11° C | 55% | 1012.6 hPa | 0 mm | - | - | - |
| 1777651731 | 31.11° C | 54% | 1012.4 hPa | 0 mm | - | - | - |
| 1777651431 | 31.11° C | 57% | 1012.5 hPa | 0 mm | - | - | - |
| 1777651131 | 31.11° C | 56% | 1012.5 hPa | 0 mm | - | - | - |
| 1777651094 | 31.11° C | 55% | 1012.6 hPa | 0 mm | - | - | - |
| 1777650831 | 31.11° C | 55% | 1012.6 hPa | 0 mm | - | - | - |
| 1777650531 | 30.56° C | 56% | 1012.6 hPa | 0 mm | - | - | - |
| 1777650231 | 30.56° C | 58% | 1012.4 hPa | 0 mm | - | - | - |
| 1777649931 | 30° C | 58% | 1012.5 hPa | 0 mm | - | - | - |
| 1777649730 | 30° C | 59% | 1012.6 hPa | 0 mm | - | - | - |
| 1777649631 | 30° C | 57% | 1012.6 hPa | 0 mm | - | - | - |
| 1777649331 | 30° C | 59% | 1012.6 hPa | 0 mm | - | - | - |
| 1777649253 | 30° C | 59% | 1012.6 hPa | 0 mm | - | - | - |
| 1777649241 | 27.78° C | 69% | 1012.5 hPa | 0 mm | - | - | - |
| 1777649031 | 30° C | 59% | 1012.6 hPa | 0 mm | - | - | - |
| 1777648731 | 30° C | 61% | 1012.3 hPa | 0 mm | - | - | - |
| 1777648431 | 29.44° C | 61% | 1012.5 hPa | 0 mm | - | - | - |
| 1777648365 | 29.44° C | 61% | 1012.7 hPa | 0 mm | - | - | - |
| 1777648131 | 29.44° C | 61% | 1012.7 hPa | 0 mm | - | - | - |
| 1777647831 | 29.44° C | 65% | 1012.6 hPa | 0 mm | - | - | - |
| 1777647706 | 28.89° C | 65% | 1012.5 hPa | 0 mm | - | - | - |
* Rain latest hour (hover to see other rain measurements)
** Current wind speed in m/s (hover to see current wind gust speed)